Archival Weather

Rochelle Muni/Koritz Fld

Rochelle, Illinois (KRPJ)

Report from: Sunday, February 5, 2023 3:15 PM CST
Current time: Friday, April 19, 2024 3:51 AM CDT

Current weather – Weather history – Daily summaries
Weather forecast

Temperature2.8°C (37.0°F)
Wind chill-1.2°C (29.8°F)
Dew point-1.4°C (29.5°F)
Winds 9 kts (4.6 m/s, 10.4 mph) West-Northwest (300°)
Visibility10 mi. (16.1 km)
Clouds Sky clear
Altimeter29.99 in.Hg (1016 mB)
Relative humidity74 %
Density altitude-1,476 ft. (-450 m)
Remarks Fully automated report
Automated weather observing station with precipitation discriminator
Lightning detection system not operating
Flight conditions Visual Meteorological Conditions
Raw dataKRPJ 052115Z AUTO 30009KT 10SM CLR 03/M01 A2999 RMK AO2 T00281014 TSNO
An error has occurred. This application may no longer respond until reloaded. Reload 🗙